Brooklyn, Alabama
Current Conditions -  °F | °C
As of 11:53 PM on Friday 19 Dec 2014 (Local Time) from KGZH Reporting Station
Overcast Overcast  
Wind Chill: 44°   Ceiling: 700
Heat Index: 47°   Visibility: 10mi
Dew Point: 45°   Wind: 6mph
Humidity: 93%   Direction: 40°NE
Pressure: 30.12"   Gusts: NA
Location:  31.26°N, 86.77°W
Report Text: KGZH 200553Z AUTO 04005KT 10SM BKN007 BKN039 OVC050 08/07 A3012 RMK AO2 RAE50 SLP199 P0002 60041 T00830072 10094 20083 401440067 58017
Loading
Personal Weather Stations






























Interactive Weather Map New forecast layout! Learn more

10-Day Weather Forecast

Advertisements
Track Severe Weather on mobile